sensor_id;sensor_type;location;lat;lon;timestamp;pressure;altitude;pressure_sealevel;temperature;humidity
45894;BME280;31603;51.148;16.932;2022-09-27T00:01:03;98766.59;;;12.07;100.00
45894;BME280;31603;51.148;16.932;2022-09-27T00:03:30;98769.38;;;12.12;100.00
45894;BME280;31603;51.148;16.932;2022-09-27T00:06:01;98762.78;;;12.13;100.00
45894;BME280;31603;51.148;16.932;2022-09-27T00:08:29;98765.41;;;12.46;100.00
45894;BME280;31603;51.148;16.932;2022-09-27T00:10:59;98769.84;;;12.25;100.00
45894;BME280;31603;51.148;16.932;2022-09-27T00:13:26;98764.97;;;12.11;100.00
45894;BME280;31603;51.148;16.932;2022-09-27T00:15:57;98752.81;;;12.56;100.00
45894;BME280;31603;51.148;16.932;2022-09-27T00:18:23;98762.53;;;12.36;100.00
45894;BME280;31603;51.148;16.932;2022-09-27T00:20:50;98729.28;;;12.21;100.00
45894;BME280;31603;51.148;16.932;2022-09-27T00:23:16;98761.41;;;12.59;100.00
45894;BME280;31603;51.148;16.932;2022-09-27T00:25:53;98733.97;;;12.20;100.00
45894;BME280;31603;51.148;16.932;2022-09-27T00:28:24;98702.88;;;12.25;100.00
45894;BME280;31603;51.148;16.932;2022-09-27T00:30:51;98735.84;;;12.64;100.00
45894;BME280;31603;51.148;16.932;2022-09-27T00:33:18;98755.22;;;12.25;100.00
45894;BME280;31603;51.148;16.932;2022-09-27T00:35:45;98740.63;;;12.24;100.00
45894;BME280;31603;51.148;16.932;2022-09-27T00:38:12;98737.72;;;12.36;100.00
45894;BME280;31603;51.148;16.932;2022-09-27T00:40:39;98732.91;;;12.04;100.00
45894;BME280;31603;51.148;16.932;2022-09-27T00:43:12;98725.28;;;12.12;100.00
45894;BME280;31603;51.148;16.932;2022-09-27T00:45:45;98749.84;;;12.13;100.00
45894;BME280;31603;51.148;16.932;2022-09-27T00:48:15;98743.47;;;12.57;100.00
45894;BME280;31603;51.148;16.932;2022-09-27T00:50:45;98710.69;;;11.89;100.00
45894;BME280;31603;51.148;16.932;2022-09-27T00:53:14;98746.13;;;11.64;100.00
45894;BME280;31603;51.148;16.932;2022-09-27T00:55:45;98736.41;;;11.78;100.00
45894;BME280;31603;51.148;16.932;2022-09-27T00:58:17;98712.56;;;11.67;100.00
45894;BME280;31603;51.148;16.932;2022-09-27T01:00:51;98713.38;;;11.84;100.00
45894;BME280;31603;51.148;16.932;2022-09-27T01:03:23;98700.00;;;11.76;100.00
45894;BME280;31603;51.148;16.932;2022-09-27T01:05:52;98689.75;;;11.49;100.00
45894;BME280;31603;51.148;16.932;2022-09-27T01:08:18;98698.03;;;11.71;100.00
45894;BME280;31603;51.148;16.932;2022-09-27T01:10:53;98692.81;;;11.53;100.00
45894;BME280;31603;51.148;16.932;2022-09-27T01:13:26;98689.69;;;11.44;100.00
45894;BME280;31603;51.148;16.932;2022-09-27T01:16:01;98688.97;;;11.54;100.00
45894;BME280;31603;51.148;16.932;2022-09-27T01:18:33;98675.66;;;11.68;100.00
45894;BME280;31603;51.148;16.932;2022-09-27T01:21:35;98677.72;;;11.55;100.00
45894;BME280;31603;51.148;16.932;2022-09-27T01:24:12;98675.16;;;11.71;100.00
45894;BME280;31603;51.148;16.932;2022-09-27T01:29:55;98662.34;;;11.60;100.00
45894;BME280;31603;51.148;16.932;2022-09-27T01:32:30;98600.81;;;11.27;100.00
45894;BME280;31603;51.148;16.932;2022-09-27T01:35:02;98652.16;;;11.60;100.00
45894;BME280;31603;51.148;16.932;2022-09-27T01:37:36;98640.22;;;11.32;100.00
45894;BME280;31603;51.148;16.932;2022-09-27T01:40:08;98642.97;;;11.32;100.00
45894;BME280;31603;51.148;16.932;2022-09-27T01:42:40;98591.91;;;11.20;100.00
45894;BME280;31603;51.148;16.932;2022-09-27T01:45:17;98645.38;;;11.46;100.00
45894;BME280;31603;51.148;16.932;2022-09-27T01:47:50;98639.53;;;11.42;100.00
45894;BME280;31603;51.148;16.932;2022-09-27T01:50:20;98621.19;;;11.48;100.00
45894;BME280;31603;51.148;16.932;2022-09-27T01:52:52;98620.06;;;11.27;100.00
45894;BME280;31603;51.148;16.932;2022-09-27T01:55:23;98604.84;;;11.41;100.00
45894;BME280;31603;51.148;16.932;2022-09-27T01:57:56;98614.22;;;11.23;100.00
45894;BME280;31603;51.148;16.932;2022-09-27T02:00:24;98619.81;;;11.50;100.00
45894;BME280;31603;51.148;16.932;2022-09-27T02:02:54;98594.97;;;11.67;100.00
45894;BME280;31603;51.148;16.932;2022-09-27T02:05:25;98592.69;;;11.59;100.00
45894;BME280;31603;51.148;16.932;2022-09-27T02:07:57;98589.75;;;11.66;100.00
45894;BME280;31603;51.148;16.932;2022-09-27T02:10:28;98606.53;;;11.86;100.00
45894;BME280;31603;51.148;16.932;2022-09-27T02:13:01;98572.31;;;11.38;100.00
45894;BME280;31603;51.148;16.932;2022-09-27T02:15:34;98567.38;;;11.18;100.00
45894;BME280;31603;51.148;16.932;2022-09-27T02:18:13;98586.13;;;11.43;100.00
45894;BME280;31603;51.148;16.932;2022-09-27T02:20:48;98570.16;;;11.40;100.00
45894;BME280;31603;51.148;16.932;2022-09-27T02:23:20;98577.38;;;11.68;100.00
45894;BME280;31603;51.148;16.932;2022-09-27T02:25:52;98557.91;;;11.75;100.00
45894;BME280;31603;51.148;16.932;2022-09-27T02:28:24;98586.41;;;11.64;100.00
45894;BME280;31603;51.148;16.932;2022-09-27T02:30:53;98582.75;;;11.58;100.00
45894;BME280;31603;51.148;16.932;2022-09-27T02:33:23;98576.03;;;11.71;100.00
45894;BME280;31603;51.148;16.932;2022-09-27T02:35:51;98573.28;;;11.49;100.00
45894;BME280;31603;51.148;16.932;2022-09-27T02:38:18;98534.97;;;11.47;100.00
45894;BME280;31603;51.148;16.932;2022-09-27T02:40:46;98561.81;;;11.35;100.00
45894;BME280;31603;51.148;16.932;2022-09-27T02:43:14;98560.81;;;11.19;100.00
45894;BME280;31603;51.148;16.932;2022-09-27T02:45:51;98554.72;;;11.17;100.00
45894;BME280;31603;51.148;16.932;2022-09-27T02:48:25;98563.06;;;11.22;100.00
45894;BME280;31603;51.148;16.932;2022-09-27T02:51:06;98558.09;;;11.46;100.00
45894;BME280;31603;51.148;16.932;2022-09-27T02:53:44;98561.63;;;11.64;100.00
45894;BME280;31603;51.148;16.932;2022-09-27T02:56:19;98567.97;;;11.42;100.00
45894;BME280;31603;51.148;16.932;2022-09-27T02:58:57;98565.91;;;11.54;100.00
45894;BME280;31603;51.148;16.932;2022-09-27T03:01:30;98551.13;;;11.39;100.00
45894;BME280;31603;51.148;16.932;2022-09-27T03:04:03;98536.41;;;11.28;100.00
45894;BME280;31603;51.148;16.932;2022-09-27T03:06:33;98516.38;;;11.11;100.00
45894;BME280;31603;51.148;16.932;2022-09-27T03:09:01;98520.41;;;11.47;100.00
45894;BME280;31603;51.148;16.932;2022-09-27T03:11:27;98546.97;;;12.07;100.00
45894;BME280;31603;51.148;16.932;2022-09-27T03:13:54;98484.75;;;11.35;100.00
45894;BME280;31603;51.148;16.932;2022-09-27T03:16:20;98540.69;;;11.63;100.00
45894;BME280;31603;51.148;16.932;2022-09-27T03:18:47;98515.34;;;11.39;100.00
45894;BME280;31603;51.148;16.932;2022-09-27T03:21:15;98482.94;;;10.97;100.00
45894;BME280;31603;51.148;16.932;2022-09-27T03:23:42;98533.84;;;11.43;100.00
45894;BME280;31603;51.148;16.932;2022-09-27T03:26:13;98529.47;;;11.47;100.00
45894;BME280;31603;51.148;16.932;2022-09-27T03:28:39;98513.44;;;11.39;100.00
45894;BME280;31603;51.148;16.932;2022-09-27T03:31:06;98508.03;;;11.49;100.00
45894;BME280;31603;51.148;16.932;2022-09-27T03:33:33;98523.84;;;11.59;100.00
45894;BME280;31603;51.148;16.932;2022-09-27T03:35:59;98513.09;;;11.36;100.00
45894;BME280;31603;51.148;16.932;2022-09-27T03:38:29;98508.16;;;11.60;100.00
45894;BME280;31603;51.148;16.932;2022-09-27T03:40:55;98504.09;;;11.40;100.00
45894;BME280;31603;51.148;16.932;2022-09-27T03:43:24;98364.78;;;10.85;100.00
45894;BME280;31603;51.148;16.932;2022-09-27T03:45:52;98495.06;;;11.45;100.00
45894;BME280;31603;51.148;16.932;2022-09-27T03:48:21;98487.69;;;11.77;100.00
45894;BME280;31603;51.148;16.932;2022-09-27T03:50:50;98455.91;;;11.38;100.00
45894;BME280;31603;51.148;16.932;2022-09-27T03:53:16;98493.03;;;11.84;100.00
45894;BME280;31603;51.148;16.932;2022-09-27T03:55:45;98504.22;;;12.04;100.00
45894;BME280;31603;51.148;16.932;2022-09-27T03:58:12;98505.44;;;12.19;100.00
45894;BME280;31603;51.148;16.932;2022-09-27T04:00:38;98507.06;;;11.61;100.00
45894;BME280;31603;51.148;16.932;2022-09-27T04:03:05;98477.81;;;11.05;100.00
45894;BME280;31603;51.148;16.932;2022-09-27T04:05:31;98483.69;;;11.14;100.00
45894;BME280;31603;51.148;16.932;2022-09-27T04:07:58;98498.19;;;11.31;100.00
45894;BME280;31603;51.148;16.932;2022-09-27T04:10:25;98502.19;;;11.41;100.00
45894;BME280;31603;51.148;16.932;2022-09-27T04:12:52;98487.47;;;11.30;100.00
45894;BME280;31603;51.148;16.932;2022-09-27T04:15:22;98507.78;;;11.07;100.00
45894;BME280;31603;51.148;16.932;2022-09-27T04:17:49;98493.53;;;11.10;100.00
45894;BME280;31603;51.148;16.932;2022-09-27T04:20:15;98492.53;;;11.16;100.00
45894;BME280;31603;51.148;16.932;2022-09-27T04:22:43;98495.69;;;11.52;100.00
45894;BME280;31603;51.148;16.932;2022-09-27T04:25:10;98490.38;;;11.45;100.00
45894;BME280;31603;51.148;16.932;2022-09-27T04:27:36;98488.72;;;11.44;100.00
45894;BME280;31603;51.148;16.932;2022-09-27T04:30:06;98501.66;;;11.71;100.00
45894;BME280;31603;51.148;16.932;2022-09-27T04:32:32;98487.69;;;12.04;100.00
45894;BME280;31603;51.148;16.932;2022-09-27T04:34:59;98451.72;;;11.35;100.00
45894;BME280;31603;51.148;16.932;2022-09-27T04:37:43;98491.78;;;11.48;100.00
45894;BME280;31603;51.148;16.932;2022-09-27T04:40:10;98484.56;;;11.69;100.00
45894;BME280;31603;51.148;16.932;2022-09-27T04:42:37;98463.66;;;11.19;100.00
45894;BME280;31603;51.148;16.932;2022-09-27T04:45:05;98486.03;;;11.27;100.00
45894;BME280;31603;51.148;16.932;2022-09-27T04:47:34;98483.31;;;11.54;100.00
45894;BME280;31603;51.148;16.932;2022-09-27T04:50:00;98364.47;;;10.59;100.00
45894;BME280;31603;51.148;16.932;2022-09-27T04:52:27;98469.00;;;11.52;100.00
45894;BME280;31603;51.148;16.932;2022-09-27T04:54:53;98484.53;;;11.91;100.00
45894;BME280;31603;51.148;16.932;2022-09-27T04:57:19;98458.47;;;11.22;100.00
45894;BME280;31603;51.148;16.932;2022-09-27T04:59:47;98405.41;;;11.27;100.00
45894;BME280;31603;51.148;16.932;2022-09-27T05:02:17;98444.97;;;11.75;100.00
45894;BME280;31603;51.148;16.932;2022-09-27T05:04:43;98455.09;;;11.42;100.00
45894;BME280;31603;51.148;16.932;2022-09-27T05:07:10;98428.97;;;11.18;100.00
45894;BME280;31603;51.148;16.932;2022-09-27T05:09:36;98447.09;;;11.14;100.00
45894;BME280;31603;51.148;16.932;2022-09-27T05:12:05;98464.41;;;11.63;100.00
45894;BME280;31603;51.148;16.932;2022-09-27T05:14:33;98456.50;;;11.72;100.00
45894;BME280;31603;51.148;16.932;2022-09-27T05:16:59;98474.06;;;11.39;100.00
45894;BME280;31603;51.148;16.932;2022-09-27T05:19:27;98471.56;;;11.86;100.00
45894;BME280;31603;51.148;16.932;2022-09-27T05:21:53;98473.66;;;11.79;100.00
45894;BME280;31603;51.148;16.932;2022-09-27T05:24:20;98475.00;;;11.98;100.00
45894;BME280;31603;51.148;16.932;2022-09-27T05:26:46;98485.41;;;11.69;100.00
45894;BME280;31603;51.148;16.932;2022-09-27T05:29:13;98478.28;;;11.46;100.00
45894;BME280;31603;51.148;16.932;2022-09-27T05:31:39;98479.38;;;11.45;100.00
45894;BME280;31603;51.148;16.932;2022-09-27T05:34:06;98443.16;;;11.31;100.00
45894;BME280;31603;51.148;16.932;2022-09-27T05:36:34;98476.03;;;11.43;100.00
45894;BME280;31603;51.148;16.932;2022-09-27T05:39:01;98425.34;;;11.39;100.00
45894;BME280;31603;51.148;16.932;2022-09-27T05:41:27;98417.25;;;11.27;100.00
45894;BME280;31603;51.148;16.932;2022-09-27T05:43:56;98461.88;;;11.56;100.00
45894;BME280;31603;51.148;16.932;2022-09-27T05:46:25;98460.44;;;11.27;100.00
45894;BME280;31603;51.148;16.932;2022-09-27T05:48:53;98466.28;;;11.30;100.00
45894;BME280;31603;51.148;16.932;2022-09-27T05:51:19;98474.88;;;11.39;100.00
45894;BME280;31603;51.148;16.932;2022-09-27T05:53:52;98442.84;;;11.28;100.00
45894;BME280;31603;51.148;16.932;2022-09-27T05:56:29;98372.91;;;10.97;100.00
45894;BME280;31603;51.148;16.932;2022-09-27T05:58:56;98466.94;;;11.43;100.00
45894;BME280;31603;51.148;16.932;2022-09-27T06:01:22;98461.88;;;11.56;100.00
45894;BME280;31603;51.148;16.932;2022-09-27T06:03:52;98418.59;;;11.25;100.00
45894;BME280;31603;51.148;16.932;2022-09-27T06:06:19;98453.19;;;11.70;100.00
45894;BME280;31603;51.148;16.932;2022-09-27T06:08:47;98405.00;;;11.40;100.00
45894;BME280;31603;51.148;16.932;2022-09-27T06:11:17;98454.19;;;11.59;100.00
45894;BME280;31603;51.148;16.932;2022-09-27T06:13:43;98395.03;;;11.34;100.00
45894;BME280;31603;51.148;16.932;2022-09-27T06:16:10;98404.25;;;11.50;100.00
45894;BME280;31603;51.148;16.932;2022-09-27T06:18:37;98450.28;;;11.54;100.00
45894;BME280;31603;51.148;16.932;2022-09-27T06:21:05;98453.81;;;11.77;100.00
45894;BME280;31603;51.148;16.932;2022-09-27T06:23:32;98452.56;;;11.90;100.00
45894;BME280;31603;51.148;16.932;2022-09-27T06:26:00;98436.56;;;11.87;100.00
45894;BME280;31603;51.148;16.932;2022-09-27T06:28:28;98434.69;;;11.92;100.00
45894;BME280;31603;51.148;16.932;2022-09-27T06:30:55;98432.16;;;11.86;100.00
45894;BME280;31603;51.148;16.932;2022-09-27T06:33:21;98441.88;;;12.31;100.00
45894;BME280;31603;51.148;16.932;2022-09-27T06:35:49;98452.63;;;11.95;100.00
45894;BME280;31603;51.148;16.932;2022-09-27T06:38:16;98463.00;;;12.20;100.00
45894;BME280;31603;51.148;16.932;2022-09-27T06:40:45;98443.22;;;12.65;100.00
45894;BME280;31603;51.148;16.932;2022-09-27T06:43:29;98333.88;;;11.59;100.00
45894;BME280;31603;51.148;16.932;2022-09-27T06:45:58;98445.69;;;12.67;100.00
45894;BME280;31603;51.148;16.932;2022-09-27T06:48:25;98444.84;;;12.66;100.00
45894;BME280;31603;51.148;16.932;2022-09-27T06:50:52;98445.34;;;12.53;100.00
45894;BME280;31603;51.148;16.932;2022-09-27T06:53:22;98442.34;;;12.60;100.00
45894;BME280;31603;51.148;16.932;2022-09-27T06:55:49;98350.34;;;11.86;100.00
45894;BME280;31603;51.148;16.932;2022-09-27T06:58:17;98373.44;;;12.17;100.00
45894;BME280;31603;51.148;16.932;2022-09-27T07:01:03;98435.84;;;12.81;100.00
45894;BME280;31603;51.148;16.932;2022-09-27T07:03:29;98431.94;;;12.77;100.00
45894;BME280;31603;51.148;16.932;2022-09-27T07:05:59;98430.22;;;12.61;100.00
45894;BME280;31603;51.148;16.932;2022-09-27T07:08:27;98445.66;;;12.62;100.00
45894;BME280;31603;51.148;16.932;2022-09-27T07:10:55;98444.97;;;12.39;100.00
45894;BME280;31603;51.148;16.932;2022-09-27T07:13:26;98447.00;;;12.54;100.00
45894;BME280;31603;51.148;16.932;2022-09-27T07:16:02;98445.97;;;12.70;100.00
45894;BME280;31603;51.148;16.932;2022-09-27T07:18:29;98412.44;;;12.41;100.00
45894;BME280;31603;51.148;16.932;2022-09-27T07:20:58;98448.41;;;12.57;100.00
45894;BME280;31603;51.148;16.932;2022-09-27T07:23:25;98458.59;;;12.56;100.00
45894;BME280;31603;51.148;16.932;2022-09-27T07:25:52;98433.66;;;12.36;100.00
45894;BME280;31603;51.148;16.932;2022-09-27T07:28:27;98399.84;;;12.50;100.00
45894;BME280;31603;51.148;16.932;2022-09-27T07:30:57;98400.06;;;12.49;100.00
45894;BME280;31603;51.148;16.932;2022-09-27T07:33:25;98447.91;;;12.65;100.00
45894;BME280;31603;51.148;16.932;2022-09-27T07:35:55;98447.69;;;12.82;100.00
45894;BME280;31603;51.148;16.932;2022-09-27T07:38:27;98450.78;;;12.90;100.00
45894;BME280;31603;51.148;16.932;2022-09-27T07:40:53;98435.38;;;12.99;100.00
45894;BME280;31603;51.148;16.932;2022-09-27T07:43:20;98410.41;;;12.69;100.00
45894;BME280;31603;51.148;16.932;2022-09-27T07:45:58;98437.81;;;12.86;100.00
45894;BME280;31603;51.148;16.932;2022-09-27T07:48:26;98435.69;;;12.56;100.00
45894;BME280;31603;51.148;16.932;2022-09-27T07:50:53;98443.06;;;12.92;100.00
45894;BME280;31603;51.148;16.932;2022-09-27T07:53:22;98412.00;;;13.22;100.00
45894;BME280;31603;51.148;16.932;2022-09-27T07:55:51;98430.72;;;13.05;100.00
45894;BME280;31603;51.148;16.932;2022-09-27T07:58:20;98429.25;;;12.92;100.00
45894;BME280;31603;51.148;16.932;2022-09-27T08:00:49;98440.47;;;12.70;100.00
45894;BME280;31603;51.148;16.932;2022-09-27T08:03:17;98415.81;;;12.48;100.00
45894;BME280;31603;51.148;16.932;2022-09-27T08:05:45;98413.19;;;12.74;100.00
45894;BME280;31603;51.148;16.932;2022-09-27T08:08:12;98353.72;;;12.41;100.00
45894;BME280;31603;51.148;16.932;2022-09-27T08:10:39;98386.25;;;12.39;100.00
45894;BME280;31603;51.148;16.932;2022-09-27T08:13:09;98363.34;;;12.33;100.00
45894;BME280;31603;51.148;16.932;2022-09-27T08:15:35;98432.59;;;12.89;100.00
45894;BME280;31603;51.148;16.932;2022-09-27T08:18:09;98429.31;;;13.02;100.00
45894;BME280;31603;51.148;16.932;2022-09-27T08:20:35;98428.22;;;13.04;100.00
45894;BME280;31603;51.148;16.932;2022-09-27T08:23:04;98436.47;;;12.93;100.00
45894;BME280;31603;51.148;16.932;2022-09-27T08:25:31;98416.91;;;13.10;100.00
45894;BME280;31603;51.148;16.932;2022-09-27T08:27:59;98374.53;;;12.64;100.00
45894;BME280;31603;51.148;16.932;2022-09-27T08:30:26;98431.72;;;12.89;100.00
45894;BME280;31603;51.148;16.932;2022-09-27T08:32:58;98388.38;;;12.79;100.00
45894;BME280;31603;51.148;16.932;2022-09-27T08:35:25;98385.09;;;12.82;100.00
45894;BME280;31603;51.148;16.932;2022-09-27T08:37:54;98413.31;;;13.05;100.00
45894;BME280;31603;51.148;16.932;2022-09-27T08:40:25;98383.78;;;13.05;100.00
45894;BME280;31603;51.148;16.932;2022-09-27T08:42:59;98425.44;;;12.98;100.00
45894;BME280;31603;51.148;16.932;2022-09-27T08:45:31;98405.28;;;12.93;100.00
45894;BME280;31603;51.148;16.932;2022-09-27T08:48:01;98449.44;;;13.81;100.00
45894;BME280;31603;51.148;16.932;2022-09-27T08:50:33;98430.06;;;13.56;100.00
45894;BME280;31603;51.148;16.932;2022-09-27T08:53:04;98343.34;;;13.36;100.00
45894;BME280;31603;51.148;16.932;2022-09-27T08:55:34;98446.84;;;13.39;100.00
45894;BME280;31603;51.148;16.932;2022-09-27T08:58:06;98403.50;;;13.39;100.00
45894;BME280;31603;51.148;16.932;2022-09-27T09:00:35;98407.72;;;13.72;100.00
45894;BME280;31603;51.148;16.932;2022-09-27T09:03:01;98426.78;;;14.05;100.00
45894;BME280;31603;51.148;16.932;2022-09-27T09:05:29;98416.66;;;13.17;100.00
45894;BME280;31603;51.148;16.932;2022-09-27T09:08:09;98435.56;;;13.51;100.00
45894;BME280;31603;51.148;16.932;2022-09-27T09:10:48;98375.50;;;13.10;100.00
45894;BME280;31603;51.148;16.932;2022-09-27T09:13:51;98426.69;;;13.43;100.00
45894;BME280;31603;51.148;16.932;2022-09-27T09:16:29;98417.31;;;13.34;100.00
45894;BME280;31603;51.148;16.932;2022-09-27T09:19:12;98428.38;;;13.44;100.00
45894;BME280;31603;51.148;16.932;2022-09-27T09:21:53;98426.47;;;13.55;100.00
45894;BME280;31603;51.148;16.932;2022-09-27T09:24:30;98414.56;;;13.49;100.00
45894;BME280;31603;51.148;16.932;2022-09-27T09:27:08;98422.63;;;13.66;100.00
45894;BME280;31603;51.148;16.932;2022-09-27T09:29:55;98421.53;;;13.72;100.00
45894;BME280;31603;51.148;16.932;2022-09-27T09:32:33;98415.19;;;13.77;100.00
45894;BME280;31603;51.148;16.932;2022-09-27T09:35:08;98407.41;;;13.79;100.00
45894;BME280;31603;51.148;16.932;2022-09-27T09:37:39;98400.53;;;14.02;100.00
45894;BME280;31603;51.148;16.932;2022-09-27T09:40:16;98388.91;;;13.75;100.00
45894;BME280;31603;51.148;16.932;2022-09-27T09:42:50;98410.47;;;13.78;100.00
45894;BME280;31603;51.148;16.932;2022-09-27T09:45:20;98403.81;;;13.94;100.00
45894;BME280;31603;51.148;16.932;2022-09-27T09:47:53;98390.53;;;14.32;100.00
45894;BME280;31603;51.148;16.932;2022-09-27T09:50:25;98374.81;;;13.76;100.00
45894;BME280;31603;51.148;16.932;2022-09-27T09:52:55;98381.19;;;13.77;100.00
45894;BME280;31603;51.148;16.932;2022-09-27T09:55:25;98396.91;;;13.76;100.00
45894;BME280;31603;51.148;16.932;2022-09-27T09:58:01;98393.31;;;13.60;100.00
45894;BME280;31603;51.148;16.932;2022-09-27T10:00:30;98398.59;;;13.92;100.00
45894;BME280;31603;51.148;16.932;2022-09-27T10:02:58;98367.09;;;13.68;100.00
45894;BME280;31603;51.148;16.932;2022-09-27T10:05:26;98391.66;;;14.15;100.00
45894;BME280;31603;51.148;16.932;2022-09-27T10:07:56;98394.66;;;14.44;100.00
45894;BME280;31603;51.148;16.932;2022-09-27T10:10:23;98374.25;;;14.20;100.00
45894;BME280;31603;51.148;16.932;2022-09-27T10:12:56;98334.75;;;13.68;100.00
45894;BME280;31603;51.148;16.932;2022-09-27T10:15:55;98257.44;;;13.38;100.00
45894;BME280;31603;51.148;16.932;2022-09-27T10:18:34;98375.88;;;14.36;100.00
45894;BME280;31603;51.148;16.932;2022-09-27T10:21:05;98388.88;;;14.56;100.00
45894;BME280;31603;51.148;16.932;2022-09-27T10:23:32;98359.28;;;14.36;100.00
45894;BME280;31603;51.148;16.932;2022-09-27T10:26:00;98372.56;;;14.50;100.00
45894;BME280;31603;51.148;16.932;2022-09-27T10:28:32;98387.50;;;14.33;100.00
45894;BME280;31603;51.148;16.932;2022-09-27T10:31:03;98373.56;;;14.79;100.00
45894;BME280;31603;51.148;16.932;2022-09-27T10:33:32;98315.06;;;14.31;100.00
45894;BME280;31603;51.148;16.932;2022-09-27T10:36:01;98364.44;;;14.79;100.00
45894;BME280;31603;51.148;16.932;2022-09-27T10:38:30;98370.19;;;14.92;100.00
45894;BME280;31603;51.148;16.932;2022-09-27T10:41:14;98356.56;;;15.01;100.00
45894;BME280;31603;51.148;16.932;2022-09-27T10:43:41;98354.28;;;14.54;100.00
45894;BME280;31603;51.148;16.932;2022-09-27T10:46:15;98384.06;;;14.77;100.00
45894;BME280;31603;51.148;16.932;2022-09-27T10:48:46;98372.81;;;14.63;100.00
45894;BME280;31603;51.148;16.932;2022-09-27T10:51:24;98358.75;;;14.19;100.00
45894;BME280;31603;51.148;16.932;2022-09-27T10:53:54;98388.03;;;14.45;100.00
45894;BME280;31603;51.148;16.932;2022-09-27T10:56:27;98342.72;;;14.31;100.00
45894;BME280;31603;51.148;16.932;2022-09-27T10:58:54;98385.25;;;14.45;100.00
45894;BME280;31603;51.148;16.932;2022-09-27T11:01:22;98364.56;;;14.23;100.00
45894;BME280;31603;51.148;16.932;2022-09-27T11:03:54;98378.91;;;14.50;100.00
45894;BME280;31603;51.148;16.932;2022-09-27T11:06:29;98373.56;;;14.74;100.00
45894;BME280;31603;51.148;16.932;2022-09-27T11:09:17;98372.47;;;14.70;100.00
45894;BME280;31603;51.148;16.932;2022-09-27T11:12:07;98368.94;;;14.49;100.00
45894;BME280;31603;51.148;16.932;2022-09-27T11:14:35;98309.53;;;14.26;100.00
45894;BME280;31603;51.148;16.932;2022-09-27T11:17:14;98372.97;;;14.87;100.00
45894;BME280;31603;51.148;16.932;2022-09-27T11:19:51;98357.31;;;14.57;100.00
45894;BME280;31603;51.148;16.932;2022-09-27T11:22:50;98314.41;;;14.65;100.00
45894;BME280;31603;51.148;16.932;2022-09-27T11:25:28;98371.34;;;14.76;100.00
45894;BME280;31603;51.148;16.932;2022-09-27T11:28:06;98369.78;;;14.50;100.00
45894;BME280;31603;51.148;16.932;2022-09-27T11:30:57;98334.38;;;14.47;100.00
45894;BME280;31603;51.148;16.932;2022-09-27T11:33:48;98320.47;;;14.72;100.00
45894;BME280;31603;51.148;16.932;2022-09-27T11:36:29;98365.75;;;14.97;100.00
45894;BME280;31603;51.148;16.932;2022-09-27T11:39:02;98341.56;;;15.12;100.00
45894;BME280;31603;51.148;16.932;2022-09-27T11:41:53;98305.41;;;14.88;100.00
45894;BME280;31603;51.148;16.932;2022-09-27T11:44:35;98350.69;;;15.13;100.00
45894;BME280;31603;51.148;16.932;2022-09-27T11:47:15;98348.56;;;15.00;100.00
45894;BME280;31603;51.148;16.932;2022-09-27T11:52:53;98344.81;;;15.25;100.00
45894;BME280;31603;51.148;16.932;2022-09-27T11:55:33;98342.34;;;15.23;100.00
45894;BME280;31603;51.148;16.932;2022-09-27T11:58:10;98282.03;;;15.15;100.00
45894;BME280;31603;51.148;16.932;2022-09-27T12:00:50;98333.09;;;15.38;100.00
45894;BME280;31603;51.148;16.932;2022-09-27T12:03:51;98282.09;;;15.44;100.00
45894;BME280;31603;51.148;16.932;2022-09-27T12:06:32;98328.81;;;16.19;100.00
45894;BME280;31603;51.148;16.932;2022-09-27T12:09:08;98313.13;;;15.80;100.00
45894;BME280;31603;51.148;16.932;2022-09-27T12:11:38;98325.41;;;15.64;100.00
45894;BME280;31603;51.148;16.932;2022-09-27T12:14:10;98309.34;;;15.61;100.00
45894;BME280;31603;51.148;16.932;2022-09-27T12:16:41;98310.25;;;15.17;100.00
45894;BME280;31603;51.148;16.932;2022-09-27T12:19:15;98323.00;;;15.18;100.00
45894;BME280;31603;51.148;16.932;2022-09-27T12:21:44;98324.88;;;14.73;100.00
45894;BME280;31603;51.148;16.932;2022-09-27T12:24:21;98281.63;;;14.87;100.00
45894;BME280;31603;51.148;16.932;2022-09-27T12:26:50;98270.34;;;14.79;100.00
45894;BME280;31603;51.148;16.932;2022-09-27T12:29:24;98281.97;;;15.25;100.00
45894;BME280;31603;51.148;16.932;2022-09-27T12:32:01;98319.03;;;15.29;100.00
45894;BME280;31603;51.148;16.932;2022-09-27T12:34:36;98340.28;;;15.39;100.00
45894;BME280;31603;51.148;16.932;2022-09-27T12:37:09;98318.53;;;15.22;100.00
45894;BME280;31603;51.148;16.932;2022-09-27T12:39:46;98342.72;;;15.51;100.00
45894;BME280;31603;51.148;16.932;2022-09-27T12:42:19;98324.41;;;14.51;100.00
45894;BME280;31603;51.148;16.932;2022-09-27T12:44:47;98294.78;;;15.11;100.00
45894;BME280;31603;51.148;16.932;2022-09-27T12:47:34;98321.34;;;15.12;100.00
45894;BME280;31603;51.148;16.932;2022-09-27T12:50:22;98297.88;;;15.04;100.00
45894;BME280;31603;51.148;16.932;2022-09-27T12:53:13;98320.25;;;15.13;100.00
45894;BME280;31603;51.148;16.932;2022-09-27T12:56:07;98277.97;;;14.42;100.00
45894;BME280;31603;51.148;16.932;2022-09-27T13:01:34;98317.50;;;15.08;100.00
45894;BME280;31603;51.148;16.932;2022-09-27T13:04:22;98307.50;;;15.12;100.00
45894;BME280;31603;51.148;16.932;2022-09-27T13:07:05;98308.19;;;14.88;100.00
45894;BME280;31603;51.148;16.932;2022-09-27T13:10:09;98313.00;;;15.17;100.00
45894;BME280;31603;51.148;16.932;2022-09-27T13:12:48;98317.16;;;15.20;100.00